createdAt,value
2022-08-05T00:01:36.347Z,21.90
2022-08-05T00:04:17.019Z,21.90
2022-08-05T00:06:45.446Z,21.90
2022-08-05T00:09:15.654Z,21.80
2022-08-05T00:11:47.479Z,21.80
2022-08-05T00:14:16.906Z,21.80
2022-08-05T00:16:52.595Z,21.80
2022-08-05T00:19:23.355Z,21.80
2022-08-05T00:21:53.931Z,21.70
2022-08-05T00:24:24.715Z,21.70
2022-08-05T00:26:53.417Z,21.70
2022-08-05T00:29:22.564Z,21.70
2022-08-05T00:32:10.632Z,21.60
2022-08-05T00:35:05.367Z,21.60
2022-08-05T00:37:50.464Z,21.50
2022-08-05T00:40:26.827Z,21.50
2022-08-05T00:42:59.922Z,21.50
2022-08-05T00:45:38.254Z,21.50
2022-08-05T00:48:07.595Z,21.50
2022-08-05T00:50:35.739Z,21.40
2022-08-05T00:53:03.386Z,21.40
2022-08-05T00:55:42.602Z,21.40
2022-08-05T00:58:13.229Z,21.40
2022-08-05T01:00:42.246Z,21.40
2022-08-05T01:03:12.614Z,21.40
2022-08-05T01:05:54.829Z,21.40
2022-08-05T01:08:30.267Z,21.40
2022-08-05T01:11:37.359Z,21.30
2022-08-05T01:14:15.768Z,21.30
2022-08-05T01:16:49.647Z,21.40
2022-08-05T01:19:36.548Z,21.30
2022-08-05T01:22:40.425Z,21.30
2022-08-05T01:25:39.680Z,21.30
2022-08-05T01:28:39.702Z,21.30
2022-08-05T01:31:28.589Z,21.30
2022-08-05T01:34:05.029Z,21.30
2022-08-05T01:36:47.000Z,21.30
2022-08-05T01:39:46.103Z,21.30
2022-08-05T01:42:07.155Z,21.30
2022-08-05T01:44:38.169Z,21.30
2022-08-05T01:47:07.119Z,21.30
2022-08-05T01:50:00.092Z,21.20
2022-08-05T01:52:29.279Z,21.20
2022-08-05T01:55:01.815Z,21.10
2022-08-05T01:58:10.638Z,21.10
2022-08-05T02:00:30.097Z,21.10
2022-08-05T02:03:16.322Z,21.10
2022-08-05T02:06:01.041Z,21.10
2022-08-05T02:08:32.376Z,21.10
2022-08-05T02:11:14.560Z,21.10
2022-08-05T02:14:12.921Z,21.10
2022-08-05T02:16:53.503Z,21.10
2022-08-05T02:19:47.022Z,21.10
2022-08-05T02:22:44.003Z,21.10
2022-08-05T02:25:49.253Z,21.10
2022-08-05T02:28:28.833Z,21.10
2022-08-05T02:31:07.502Z,21.10
2022-08-05T02:33:42.821Z,21.10
2022-08-05T02:36:15.688Z,21.10
2022-08-05T02:38:53.469Z,21.10
2022-08-05T02:41:23.136Z,21.10
2022-08-05T02:44:06.241Z,21.10
2022-08-05T02:46:58.637Z,21.10
2022-08-05T02:49:40.706Z,20.90
2022-08-05T02:52:11.591Z,20.90
2022-08-05T02:54:42.801Z,20.90
2022-08-05T02:58:11.235Z,20.90
2022-08-05T03:00:10.117Z,20.90
2022-08-05T03:02:40.844Z,20.90
2022-08-05T03:05:12.533Z,20.90
2022-08-05T03:08:04.620Z,20.90
2022-08-05T03:10:29.230Z,20.80
2022-08-05T03:15:24.290Z,20.70
2022-08-05T03:17:57.785Z,20.60
2022-08-05T03:20:25.302Z,20.60
2022-08-05T03:22:57.088Z,20.60
2022-08-05T03:25:33.752Z,20.50
2022-08-05T03:28:14.661Z,20.50
2022-08-05T03:30:48.678Z,20.60
2022-08-05T03:33:17.318Z,20.60
2022-08-05T03:35:49.931Z,20.60
2022-08-05T03:38:32.714Z,20.60
2022-08-05T03:41:08.412Z,20.60
2022-08-05T03:44:08.996Z,20.60
2022-08-05T03:46:26.782Z,20.60
2022-08-05T03:48:57.890Z,20.60
2022-08-05T03:52:37.323Z,20.60
2022-08-05T03:55:53.615Z,20.60
2022-08-05T03:57:41.749Z,20.60
2022-08-05T04:00:16.270Z,20.60
2022-08-05T04:02:52.030Z,20.60
2022-08-05T04:05:33.615Z,20.50
2022-08-05T04:08:29.674Z,20.50
2022-08-05T04:10:55.810Z,20.50
2022-08-05T04:13:23.705Z,20.50
2022-08-05T04:16:02.731Z,20.40
2022-08-05T04:18:34.522Z,20.40
2022-08-05T04:21:03.987Z,20.50
2022-08-05T04:23:57.282Z,20.50
2022-08-05T04:26:19.344Z,20.40
2022-08-05T04:28:51.249Z,20.40
2022-08-05T04:31:20.076Z,20.40
2022-08-05T04:34:17.691Z,20.40
2022-08-05T04:36:49.588Z,20.40
2022-08-05T04:39:18.413Z,20.40
2022-08-05T04:41:48.212Z,20.40
2022-08-05T04:44:21.004Z,20.30
2022-08-05T04:46:51.759Z,20.30
2022-08-05T04:49:24.913Z,20.30
2022-08-05T04:52:06.168Z,20.30
2022-08-05T04:54:35.293Z,20.30
2022-08-05T04:57:02.570Z,20.30
2022-08-05T04:59:36.698Z,20.30
2022-08-05T05:02:37.369Z,20.30
2022-08-05T05:05:02.295Z,20.30
2022-08-05T05:07:32.306Z,20.30
2022-08-05T05:10:04.565Z,20.30
2022-08-05T05:12:32.307Z,20.30
2022-08-05T05:14:59.900Z,20.30
2022-08-05T05:17:57.100Z,20.30
2022-08-05T05:20:28.670Z,20.20
2022-08-05T05:22:57.442Z,20.20
2022-08-05T05:25:32.765Z,20.20
2022-08-05T05:28:08.412Z,20.20
2022-08-05T05:30:37.031Z,20.20
2022-08-05T05:33:16.067Z,20.20
2022-08-05T05:35:47.709Z,20.20
2022-08-05T05:38:22.843Z,20.20
2022-08-05T05:40:58.779Z,20.10
2022-08-05T05:43:57.246Z,20.10
2022-08-05T05:46:17.203Z,20.10
2022-08-05T05:48:48.377Z,20.10
2022-08-05T05:51:23.619Z,20.10
2022-08-05T05:53:57.193Z,20.10
2022-08-05T05:56:32.407Z,20.10
2022-08-05T05:59:07.785Z,20.10
2022-08-05T06:01:38.963Z,20.10
2022-08-05T06:04:17.627Z,20.10
2022-08-05T06:06:47.369Z,20.10
2022-08-05T06:09:27.436Z,20.10
2022-08-05T06:12:10.302Z,20.10
2022-08-05T06:14:40.179Z,20.10
2022-08-05T06:17:22.388Z,20.10
2022-08-05T06:20:09.022Z,20.10
2022-08-05T06:22:49.134Z,20.10
2022-08-05T06:28:54.172Z,20.10
2022-08-05T06:41:13.428Z,20.10
2022-08-05T06:44:00.215Z,20.10
2022-08-05T06:54:43.903Z,20.10
2022-08-05T06:58:20.098Z,20.00
2022-08-05T07:02:02.324Z,20.10
2022-08-05T07:08:54.798Z,20.00
2022-08-05T07:11:37.095Z,19.90
2022-08-05T07:14:44.331Z,19.90
2022-08-05T07:20:48.383Z,19.90
2022-08-05T07:23:30.477Z,20.00
2022-08-05T07:25:58.943Z,20.20
2022-08-05T07:31:40.774Z,20.40
2022-08-05T07:37:59.085Z,20.60
2022-08-05T07:38:12.361Z,20.50
2022-08-05T07:40:32.972Z,20.70
2022-08-05T07:43:04.728Z,20.70
2022-08-05T07:45:57.180Z,20.70
2022-08-05T07:49:00.894Z,20.80
2022-08-05T07:51:23.814Z,20.80
2022-08-05T07:54:08.289Z,20.80
2022-08-05T07:59:53.632Z,20.80
2022-08-05T08:02:31.287Z,20.80
2022-08-05T08:05:17.473Z,20.70
2022-08-05T08:07:59.223Z,20.70
2022-08-05T08:10:28.340Z,20.70
2022-08-05T08:12:58.494Z,20.60
2022-08-05T08:15:37.451Z,20.60
2022-08-05T08:18:14.210Z,20.60
2022-08-05T08:21:01.078Z,20.50
2022-08-05T08:24:02.165Z,20.50
2022-08-05T08:26:17.176Z,20.60
2022-08-05T08:29:45.483Z,20.50
2022-08-05T08:31:53.638Z,20.50
2022-08-05T08:39:49.410Z,20.50
2022-08-05T08:42:34.332Z,20.40
2022-08-05T08:45:19.858Z,20.30
2022-08-05T08:48:12.725Z,20.20
2022-08-05T08:51:03.934Z,20.20
2022-08-05T08:53:40.202Z,20.10
2022-08-05T08:56:11.823Z,20.00
2022-08-05T08:58:47.543Z,20.10
2022-08-05T09:01:18.253Z,20.10
2022-08-05T09:03:57.555Z,20.10
2022-08-05T09:06:32.492Z,20.10
2022-08-05T09:09:04.061Z,20.10
2022-08-05T09:11:51.884Z,20.10
2022-08-05T09:14:56.936Z,20.10
2022-08-05T09:17:40.441Z,20.10
2022-08-05T09:20:02.665Z,20.10
2022-08-05T09:23:19.405Z,20.10
2022-08-05T09:26:01.239Z,20.10
2022-08-05T09:28:33.184Z,20.10
2022-08-05T09:31:22.753Z,20.10
2022-08-05T09:34:03.300Z,20.10
2022-08-05T09:36:55.602Z,20.10
2022-08-05T09:39:41.298Z,20.10
2022-08-05T09:42:23.021Z,20.10
2022-08-05T09:44:56.113Z,20.10
2022-08-05T09:47:47.994Z,20.10
2022-08-05T09:50:37.617Z,20.20
2022-08-05T09:53:06.459Z,20.20
2022-08-05T09:55:56.895Z,20.20
2022-08-05T09:58:25.697Z,20.20
2022-08-05T10:01:13.312Z,20.30
2022-08-05T10:04:00.582Z,20.30
2022-08-05T10:06:28.545Z,20.30
2022-08-05T10:09:09.728Z,20.30
2022-08-05T10:12:37.010Z,20.30
2022-08-05T10:15:23.237Z,20.40
2022-08-05T10:18:12.343Z,20.30
2022-08-05T10:20:50.743Z,20.40
2022-08-05T10:23:55.764Z,20.40
2022-08-05T10:26:33.814Z,20.40
2022-08-05T10:32:49.509Z,20.30
2022-08-05T10:33:02.593Z,20.50
2022-08-05T10:35:59.898Z,20.40
2022-08-05T10:47:05.081Z,20.40
2022-08-05T10:50:48.862Z,20.40
2022-08-05T11:01:54.087Z,20.40
2022-08-05T11:48:11.568Z,20.10
2022-08-05T11:50:39.838Z,20.10
2022-08-05T11:53:09.844Z,20.10
2022-08-05T11:55:37.482Z,20.10
2022-08-05T11:58:08.374Z,20.10
2022-08-05T12:00:41.285Z,20.00
2022-08-05T12:03:29.461Z,20.00
2022-08-05T12:06:02.150Z,20.00
2022-08-05T12:08:40.676Z,20.00
2022-08-05T12:11:28.358Z,19.90
2022-08-05T12:14:10.307Z,19.90
2022-08-05T12:16:45.475Z,19.90
2022-08-05T12:20:25.340Z,19.80
2022-08-05T12:22:03.200Z,19.80
2022-08-05T12:24:49.466Z,19.70
2022-08-05T12:27:25.309Z,19.70
2022-08-05T12:30:09.379Z,19.70
2022-08-05T12:32:53.114Z,19.60
2022-08-05T12:35:39.450Z,19.60
2022-08-05T12:38:10.341Z,19.50
2022-08-05T12:40:38.529Z,19.50
2022-08-05T12:43:10.979Z,19.40
2022-08-05T12:45:48.336Z,19.30
2022-08-05T12:48:32.176Z,19.30
2022-08-05T12:52:09.971Z,19.30
2022-08-05T12:54:14.849Z,19.20
2022-08-05T12:56:53.188Z,19.20
2022-08-05T12:59:27.534Z,19.20
2022-08-05T13:02:12.367Z,19.10
2022-08-05T13:04:52.619Z,19.10
2022-08-05T13:07:55.963Z,19.10
2022-08-05T13:10:14.551Z,19.10
2022-08-05T13:12:51.187Z,19.10
2022-08-05T13:15:41.428Z,19.10
2022-08-05T13:18:21.116Z,19.10
2022-08-05T13:20:51.765Z,19.10
2022-08-05T13:23:23.122Z,19.20
2022-08-05T13:25:59.386Z,19.20
2022-08-05T13:28:29.551Z,19.20
2022-08-05T13:31:11.106Z,19.30
2022-08-05T13:34:24.148Z,19.40
2022-08-05T13:36:30.175Z,19.40
2022-08-05T13:38:58.620Z,19.50
2022-08-05T13:41:26.194Z,19.50
2022-08-05T13:44:05.275Z,19.50
2022-08-05T13:46:37.887Z,19.50
2022-08-05T13:49:18.518Z,19.50
2022-08-05T13:51:47.021Z,19.50
2022-08-05T13:54:15.953Z,19.50
2022-08-05T13:56:50.765Z,19.50
2022-08-05T13:59:27.166Z,19.40
2022-08-05T14:02:00.308Z,19.50
2022-08-05T14:04:49.555Z,19.50
2022-08-05T14:07:55.519Z,19.40
2022-08-05T14:10:30.820Z,19.40
2022-08-05T14:12:59.367Z,19.40
2022-08-05T14:16:05.260Z,19.40
2022-08-05T14:18:18.468Z,19.40
2022-08-05T14:20:54.773Z,19.50
2022-08-05T14:23:25.433Z,19.40
2022-08-05T14:25:58.509Z,19.40
2022-08-05T14:28:30.839Z,19.40
2022-08-05T14:31:01.512Z,19.40
2022-08-05T14:33:57.059Z,19.50
2022-08-05T14:36:21.542Z,19.50
2022-08-05T14:38:49.642Z,19.50
2022-08-05T14:41:17.798Z,19.60
2022-08-05T14:44:00.073Z,19.70
2022-08-05T14:46:35.071Z,19.70
2022-08-05T14:49:07.482Z,19.70
2022-08-05T14:51:42.741Z,19.70
2022-08-05T14:54:28.440Z,19.80
2022-08-05T14:56:58.019Z,19.80
2022-08-05T14:59:29.217Z,19.80
2022-08-05T15:01:58.008Z,19.70
2022-08-05T15:04:27.406Z,19.70
2022-08-05T15:06:56.722Z,19.70
2022-08-05T15:09:52.141Z,19.70
2022-08-05T15:12:16.892Z,19.70
2022-08-05T15:14:55.311Z,19.70
2022-08-05T15:17:47.673Z,19.70
2022-08-05T15:20:18.592Z,19.80
2022-08-05T15:22:54.386Z,19.80
2022-08-05T15:25:51.205Z,19.80
2022-08-05T15:28:14.935Z,19.80
2022-08-05T15:30:45.881Z,19.80
2022-08-05T15:33:56.884Z,19.80
2022-08-05T15:36:04.443Z,19.80
2022-08-05T15:38:40.959Z,19.80
2022-08-05T15:41:22.985Z,19.80
2022-08-05T15:43:54.631Z,19.80
2022-08-05T15:46:24.472Z,19.80
2022-08-05T15:48:58.833Z,19.80
2022-08-05T15:52:04.022Z,19.80
2022-08-05T15:54:18.186Z,19.90
2022-08-05T15:56:45.759Z,19.90
2022-08-05T15:59:21.984Z,19.90
2022-08-05T16:01:53.136Z,19.90
2022-08-05T16:04:25.637Z,19.90
2022-08-05T16:06:55.726Z,19.90
2022-08-05T16:09:24.452Z,19.90
2022-08-05T16:11:54.168Z,20.00
2022-08-05T16:14:22.537Z,19.90
2022-08-05T16:16:54.442Z,20.00
2022-08-05T16:20:02.713Z,20.00
2022-08-05T16:22:10.910Z,20.00
2022-08-05T16:24:51.914Z,20.10
2022-08-05T16:27:47.147Z,20.10
2022-08-05T16:30:25.973Z,20.20
2022-08-05T16:33:00.887Z,20.20
2022-08-05T16:35:33.414Z,20.30
2022-08-05T16:38:24.279Z,20.30
2022-08-05T16:40:55.368Z,20.30
2022-08-05T16:43:30.956Z,20.30
2022-08-05T16:46:03.520Z,20.30
2022-08-05T16:48:36.451Z,20.20
2022-08-05T16:51:09.112Z,20.20
2022-08-05T16:54:03.124Z,20.20
2022-08-05T16:56:31.439Z,20.10
2022-08-05T16:59:00.894Z,20.10
2022-08-05T17:01:53.243Z,20.10
2022-08-05T17:04:23.906Z,20.00
2022-08-05T17:06:55.628Z,20.00
2022-08-05T17:09:24.550Z,19.90
2022-08-05T17:11:59.444Z,19.90
2022-08-05T17:14:36.942Z,19.80
2022-08-05T17:17:14.479Z,19.80
2022-08-05T17:19:53.858Z,19.90
2022-08-05T17:22:25.345Z,19.90
2022-08-05T17:24:58.814Z,19.90
2022-08-05T17:27:33.698Z,19.90
2022-08-05T17:30:03.118Z,19.90
2022-08-05T17:32:32.144Z,19.90
2022-08-05T17:35:04.524Z,19.90
2022-08-05T17:37:41.760Z,19.80
2022-08-05T17:40:15.528Z,19.80
2022-08-05T17:42:51.369Z,19.80
2022-08-05T17:45:22.659Z,19.70
2022-08-05T17:47:55.431Z,19.70
2022-08-05T17:50:29.962Z,19.70
2022-08-05T17:52:59.885Z,19.60
2022-08-05T17:55:38.311Z,19.60
2022-08-05T17:58:09.581Z,19.60
2022-08-05T18:00:44.295Z,19.50
2022-08-05T18:03:28.164Z,19.50
2022-08-05T18:06:14.953Z,19.40
2022-08-05T18:11:33.008Z,19.30
2022-08-05T18:14:07.525Z,19.30
2022-08-05T18:16:51.441Z,19.20
2022-08-05T18:19:23.030Z,19.20
2022-08-05T18:22:09.354Z,19.10
2022-08-05T18:24:39.949Z,19.10
2022-08-05T18:27:18.555Z,19.00
2022-08-05T18:29:53.545Z,19.00
2022-08-05T18:32:28.389Z,18.90
2022-08-05T18:34:57.568Z,18.90
2022-08-05T18:37:34.825Z,18.80
2022-08-05T18:40:34.546Z,18.70
2022-08-05T18:42:57.062Z,18.70
2022-08-05T18:45:24.822Z,18.60
2022-08-05T18:47:56.800Z,18.60
2022-08-05T18:50:46.432Z,18.50
2022-08-05T18:53:20.615Z,18.50
2022-08-05T18:55:52.507Z,18.40
2022-08-05T18:58:26.973Z,18.40
2022-08-05T19:00:56.441Z,18.30
2022-08-05T19:03:55.614Z,18.30
2022-08-05T19:06:22.017Z,18.20
2022-08-05T19:08:58.607Z,18.20
2022-08-05T19:11:37.009Z,18.20
2022-08-05T19:14:44.808Z,18.20
2022-08-05T19:17:06.441Z,18.10
2022-08-05T19:19:35.445Z,18.10
2022-08-05T19:22:02.881Z,18.00
2022-08-05T19:24:34.843Z,17.90
2022-08-05T19:27:04.441Z,17.90
2022-08-05T19:29:36.181Z,17.90
2022-08-05T19:32:11.430Z,17.80
2022-08-05T19:34:39.757Z,17.70
2022-08-05T19:37:07.807Z,17.70
2022-08-05T19:39:45.659Z,17.70
2022-08-05T19:42:19.144Z,17.60
2022-08-05T19:45:06.102Z,17.50
2022-08-05T19:47:37.590Z,17.50
2022-08-05T19:50:07.924Z,17.50
2022-08-05T19:52:39.876Z,17.40
2022-08-05T19:56:11.601Z,17.40
2022-08-05T19:58:14.605Z,17.30
2022-08-05T20:00:43.270Z,17.30
2022-08-05T20:03:11.499Z,17.20
2022-08-05T20:05:49.775Z,17.20
2022-08-05T20:08:17.891Z,17.10
2022-08-05T20:10:45.310Z,17.10
2022-08-05T20:13:30.087Z,17.00
2022-08-05T20:16:08.825Z,17.00
2022-08-05T20:18:36.927Z,16.90
2022-08-05T20:21:06.740Z,16.90
2022-08-05T20:23:40.480Z,16.90
2022-08-05T20:26:23.319Z,16.80
2022-08-05T20:28:55.906Z,16.80
2022-08-05T20:31:36.846Z,16.80
2022-08-05T20:34:05.215Z,16.80
2022-08-05T20:36:32.718Z,16.70
2022-08-05T20:39:00.309Z,16.70
2022-08-05T20:41:43.277Z,16.70
2022-08-05T20:44:18.371Z,16.60
2022-08-05T20:46:47.560Z,16.60
2022-08-05T20:49:24.004Z,16.60
2022-08-05T20:51:54.236Z,16.60
2022-08-05T20:54:24.637Z,16.50
2022-08-05T20:56:53.299Z,16.40
2022-08-05T20:59:27.141Z,16.40
2022-08-05T21:02:09.415Z,16.40
2022-08-05T21:04:37.989Z,16.40
2022-08-05T21:07:05.823Z,16.30
2022-08-05T21:09:37.209Z,16.30
2022-08-05T21:12:20.143Z,16.20
2022-08-05T21:14:48.101Z,16.20
2022-08-05T21:17:15.537Z,16.10
2022-08-05T21:19:47.961Z,16.10
2022-08-05T21:22:23.267Z,16.10
2022-08-05T21:24:52.523Z,16.10
2022-08-05T21:27:24.930Z,16.00
2022-08-05T21:29:58.018Z,15.90
2022-08-05T21:32:29.538Z,15.90
2022-08-05T21:35:17.778Z,15.90
2022-08-05T21:37:47.203Z,15.80
2022-08-05T21:40:22.219Z,15.70
2022-08-05T21:42:52.002Z,15.70
2022-08-05T21:45:24.623Z,15.60
2022-08-05T21:47:57.778Z,15.60
2022-08-05T21:50:27.001Z,15.50
2022-08-05T21:52:58.943Z,15.50
2022-08-05T21:55:42.801Z,15.50
2022-08-05T21:58:19.737Z,15.40
2022-08-05T22:00:51.341Z,15.40
2022-08-05T22:03:20.575Z,15.30
2022-08-05T22:06:08.242Z,15.30
2022-08-05T22:08:35.775Z,15.30
2022-08-05T22:11:06.754Z,15.20
2022-08-05T22:14:31.256Z,15.20
2022-08-05T22:16:41.451Z,15.10
2022-08-05T22:19:57.064Z,15.10
2022-08-05T22:21:59.359Z,15.10
2022-08-05T22:24:52.532Z,15.00
2022-08-05T22:28:08.885Z,15.00
2022-08-05T22:30:35.186Z,14.90
2022-08-05T22:33:15.521Z,14.80
2022-08-05T22:35:48.633Z,14.80
2022-08-05T22:38:17.327Z,14.80
2022-08-05T22:40:49.532Z,14.70
2022-08-05T22:43:36.944Z,14.70
2022-08-05T22:46:13.090Z,14.60
2022-08-05T22:48:43.237Z,14.60
2022-08-05T22:51:22.435Z,14.50
2022-08-05T22:53:51.848Z,14.50
2022-08-05T22:56:29.739Z,14.50
2022-08-05T22:59:03.194Z,14.40
2022-08-05T23:02:04.015Z,14.30
2022-08-05T23:04:33.768Z,14.30
2022-08-05T23:07:01.210Z,14.30
2022-08-05T23:09:58.171Z,14.30
2022-08-05T23:12:18.308Z,14.20
2022-08-05T23:14:45.957Z,14.20
2022-08-05T23:17:34.466Z,14.20
2022-08-05T23:20:10.216Z,14.20
2022-08-05T23:22:47.612Z,14.20
2022-08-05T23:25:53.302Z,14.20
2022-08-05T23:28:07.134Z,14.20
2022-08-05T23:30:39.711Z,14.20
2022-08-05T23:33:22.377Z,14.20
2022-08-05T23:35:56.389Z,14.20
2022-08-05T23:38:26.826Z,14.20
2022-08-05T23:40:54.647Z,14.30
2022-08-05T23:43:25.245Z,14.20
2022-08-05T23:46:19.814Z,14.20
2022-08-05T23:48:59.943Z,14.20
2022-08-05T23:51:53.964Z,14.20
2022-08-05T23:54:25.636Z,14.20
2022-08-05T23:57:03.174Z,14.20
